Latest Coastal Weather Observations for Troughton Island

IDW60701

Issued at 4:53 pm WST Tuesday 27 June 2017 (issued every 10 minutes, with the page automatically refreshed every 10 minutes)

About coastal observations | Map of coastal stations | Coastal observations for WA | Marine services | Other Formats
Station Details ID: 001007 Name: TROUGHTON ISLAND Lat: -13.75 Lon: 126.15 Height: 6.0 m
Data from the previous 72 hours. | See also: Recent months at Troughton Island
Date/Time
WST
Temp
°C
Wind Pressure Rain since
9am
mm
Weather Cloud Vis
km
Sea
Height
m
Swell
Dir  Spd
kts
Gust
kts
hPa Trend Height
m
Period
s
Dir
27/04:30pm 26.5 WNW 7 8 1012.9 - 0.0 - - - - - - -
27/04:00pm 27.0 NW 7 8 1012.5 - 0.0 - - - - - - -
27/03:30pm 26.9 NW 7 8 1012.4 - 0.0 - - - - - - -
27/03:00pm 27.1 NW 7 9 1012.5 - 0.0 - - - - - - -
27/02:30pm 27.6 NW 7 9 1012.6 - 0.0 - - - - - - -
27/02:00pm 27.5 NNW 7 8 1012.7 - 0.0 - - - - - - -
27/01:30pm 27.0 N 6 7 1013.0 - 0.0 - - - - - - -
27/01:00pm 26.8 NNW 6 9 1013.4 - 0.0 - - - - - - -
27/12:30pm 26.9 N 7 9 1013.7 - 0.0 - - - - - - -
27/12:00pm 26.9 NNW 5 7 1014.0 - 0.0 - - - - - - -
27/11:30am 27.7 N 4 6 1014.4 - 0.0 - - - - - - -
27/11:00am 26.9 WNW 4 6 1014.7 - 0.0 - - - - - - -
27/10:30am 27.3 WNW 3 4 1015.1 - 0.0 - - - - - - -
27/10:00am 27.1 NE 3 5 1015.5 - 0.0 - - - - - - -
27/09:30am 26.9 E 5 6 1015.4 - 0.0 - - - - - - -
27/09:00am 26.6 SSE 4 6 1015.4 - 0.0 - - - - - - -
27/08:30am 26.1 S 5 7 1015.3 - 0.0 - - - - - - -
27/08:00am 25.6 S 6 7 1015.1 - 0.0 - - - - - - -
27/07:30am 25.2 S 7 9 1014.9 - 0.0 - - - - - - -
27/07:00am 24.6 S 6 7 1014.6 - 0.0 - - - - - - -
27/06:30am 23.7 SSW 6 8 1014.4 - 0.0 - - - - - - -
27/06:00am 23.5 SSW 7 8 1014.2 - 0.0 - - - - - - -
27/05:30am 23.5 SSW 7 7 1014.0 - 0.0 - - - - - - -
27/05:00am 23.6 SSW 8 10 1013.9 - 0.0 - - - - - - -
27/04:30am 23.7 SW 9 11 1013.9 - 0.0 - - - - - - -
27/04:00am 23.7 SSW 9 10 1013.9 - 0.0 - - - - - - -
27/03:30am 23.6 SSW 8 9 1014.0 - 0.0 - - - - - - -
27/03:00am 23.6 SSW 8 8 1014.2 - 0.0 - - - - - - -
27/02:30am 23.7 SSW 7 8 1014.1 - 0.0 - - - - - - -
27/02:00am 23.7 SSW 7 9 1014.2 - 0.0 - - - - - - -
27/01:30am 23.6 SSW 6 7 1014.4 - 0.0 - - - - - - -
27/01:00am 23.6 SSW 6 7 1014.5 - 0.0 - - - - - - -
27/12:30am 22.9 S 4 5 1014.8 - 0.0 - - - - - - -
27/12:00am 23.2 S 5 5 1014.9 - 0.0 - - - - - - -
 
Date/Time
WST
Temp
°C
Wind Pressure Rain since
9am
mm
Weather Cloud Vis
km
Sea
Height
m
Swell
Dir  Spd
kts
Gust
kts
hPa Trend Height
m
Period
s
Dir
26/11:30pm 22.9 S 4 5 1014.9 - 0.0 - - - - - - -
26/11:00pm 23.6 CALM 0 0 1015.0 - 0.0 - - - - - - -
26/10:30pm 23.4 CALM 0 0 1015.3 - 0.0 - - - - - - -
26/10:00pm 23.4 CALM 0 0 1015.4 - 0.0 - - - - - - -
26/09:30pm 23.4 CALM 0 0 1015.5 - 0.0 - - - - - - -
26/09:00pm 23.4 CALM 0 0 1015.3 - 0.0 - - - - - - -
26/08:30pm 23.5 CALM 0 0 1015.2 - 0.0 - - - - - - -
26/08:00pm 23.6 CALM 0 3 1015.0 - 0.0 - - - - - - -
26/07:30pm 23.5 WNW 3 4 1014.6 - 0.0 - - - - - - -
26/07:00pm 23.7 NW 4 5 1014.3 - 0.0 - - - - - - -
26/06:30pm 23.8 WNW 5 6 1014.0 - 0.0 - - - - - - -
26/06:00pm 24.1 NW 5 6 1013.9 - 0.0 - - - - - - -
26/05:30pm 24.3 NW 5 6 1013.6 - 0.0 - - - - - - -
26/05:00pm 25.2 NNW 7 8 1013.3 - 0.0 - - - - - - -
26/04:30pm 25.9 NNW 8 10 1013.2 - 0.0 - - - - - - -
26/04:00pm 26.3 NNW 8 9 1013.0 - 0.0 - - - - - - -
26/03:30pm 26.4 NW 8 9 1012.8 - 0.0 - - - - - - -
26/03:00pm 26.7 NW 6 9 1012.9 - 0.0 - - - - - - -
26/02:30pm 26.8 NNW 6 8 1012.8 - 0.0 - - - - - - -
26/02:00pm 27.3 N 5 6 1013.0 - 0.0 - - - - - - -
26/01:30pm 26.9 N 6 7 1013.1 - 0.0 - - - - - - -
26/01:00pm 27.1 NNW 5 8 1013.4 - 0.0 - - - - - - -
26/12:30pm 27.2 WNW 5 6 1013.7 - 0.0 - - - - - - -
26/12:00pm 27.1 NE 5 7 1014.0 - 0.0 - - - - - - -
26/11:30am 26.3 NNE 6 7 1014.4 - 0.0 - - - - - - -
26/11:00am 27.4 ENE 5 6 1014.6 - 0.0 - - - - - - -
26/10:30am 26.9 E 6 7 1015.0 - 0.0 - - - - - - -
26/10:00am 26.1 SE 7 8 1015.2 - 0.0 - - - - - - -
26/09:30am 25.9 SSE 7 8 1015.2 - 0.0 - - - - - - -
26/09:00am 25.9 SE 7 8 1015.3 - 0.0 - - - - - - -
26/08:30am 25.4 SSE 7 9 1015.3 - 0.0 - - - - - - -
26/08:00am 25.3 SSE 7 8 1015.0 - 0.0 - - - - - - -
26/07:30am 24.7 S 6 7 1014.6 - 0.0 - - - - - - -
26/07:00am 23.8 S 6 7 1014.1 - 0.0 - - - - - - -
26/06:30am 23.3 S 7 8 1013.8 - 0.0 - - - - - - -
26/06:00am 23.2 S 7 8 1013.4 - 0.0 - - - - - - -
26/05:30am 23.2 S 6 8 1013.3 - 0.0 - - - - - - -
26/05:00am 23.4 SSW 6 8 1013.1 - 0.0 - - - - - - -
26/04:30am 23.6 S 6 7 1013.0 - 0.0 - - - - - - -
26/04:00am 22.8 E 1 5 1012.9 - 0.0 - - - - - - -
26/03:30am 23.0 CALM 0 0 1012.8 - 0.0 - - - - - - -
26/03:00am 23.1 CALM 0 0 1012.6 - 0.0 - - - - - - -
26/02:30am 23.1 CALM 0 0 1012.7 - 0.0 - - - - - - -
26/02:00am 23.4 CALM 0 0 1012.7 - 0.0 - - - - - - -
26/01:30am 23.5 CALM 0 0 1012.9 - 0.0 - - - - - - -
26/01:00am 24.0 CALM 0 3 1013.1 - 0.0 - - - - - - -
26/12:30am 23.7 CALM 0 0 1013.5 - 0.0 - - - - - - -
26/12:00am 23.8 NE 2 3 1013.6 - 0.0 - - - - - - -
 
Date/Time
WST
Temp
°C
Wind Pressure Rain since
9am
mm
Weather Cloud Vis
km
Sea
Height
m
Swell
Dir  Spd
kts
Gust
kts
hPa Trend Height
m
Period
s
Dir
25/11:30pm 24.1 NE 4 5 1013.7 - 0.0 - - - - - - -
25/11:00pm 24.4 NE 6 8 1013.7 - 0.0 - - - - - - -
25/10:30pm 24.5 NE 6 7 1013.7 - 0.0 - - - - - - -
25/10:00pm 24.6 NE 6 7 1013.8 - 0.0 - - - - - - -
25/09:30pm 24.7 NNE 7 9 1014.0 - 0.0 - - - - - - -
25/09:00pm 24.7 NNE 7 8 1013.9 - 0.0 - - - - - - -
25/08:30pm 24.7 NNE 7 9 1013.6 - 0.0 - - - - - - -
25/08:00pm 24.8 NNE 6 7 1013.2 - 0.0 - - - - - - -
25/07:30pm 24.9 NNE 5 6 1013.1 - 0.0 - - - - - - -
25/07:00pm 25.0 NNE 6 7 1012.9 - 0.0 - - - - - - -
25/06:30pm 25.3 NNE 7 9 1012.5 - 0.0 - - - - - - -
25/06:00pm 25.4 NNE 7 8 1012.2 - 0.0 - - - - - - -
25/05:30pm 25.7 NNE 7 8 1011.9 - 0.0 - - - - - - -
25/05:00pm 25.5 N 7 8 1011.8 - 0.0 - - - - - - -
25/04:30pm 25.8 N 7 9 1011.7 - 0.0 - - - - - - -
25/04:00pm 25.9 N 6 8 1011.6 - 0.0 - - - - - - -
25/03:30pm 26.5 N 6 8 1011.6 - 0.0 - - - - - - -
25/03:00pm 27.1 N 6 8 1011.6 - 0.0 - - - - - - -
25/02:30pm 27.3 NNW 6 7 1011.8 - 0.0 - - - - - - -
25/02:00pm 27.8 NNE 4 6 1011.8 - 0.0 - - - - - - -
25/01:30pm 27.0 NNE 4 6 1012.0 - 0.0 - - - - - - -
25/01:00pm 27.3 NNE 5 7 1012.4 - 0.0 - - - - - - -
25/12:30pm 27.1 NE 5 7 1012.7 - 0.0 - - - - - - -
25/12:00pm 27.2 NE 6 7 1013.2 - 0.0 - - - - - - -
25/11:30am 27.7 ENE 5 6 1013.6 - 0.0 - - - - - - -
25/11:00am 27.0 E 6 7 1014.1 - 0.0 - - - - - - -
25/10:30am 27.0 ESE 6 8 1014.4 - 0.0 - - - - - - -
25/10:00am 26.6 SE 6 8 1014.6 - 0.0 - - - - - - -
25/09:30am 26.1 SSE 7 8 1014.8 - 0.0 - - - - - - -
25/09:00am 25.7 SE 7 8 1014.8 - 0.0 - - - - - - -
25/08:30am 25.5 SE 6 8 1014.6 - 0.0 - - - - - - -
25/08:00am 25.1 SSE 6 7 1014.4 - 0.0 - - - - - - -
25/07:30am 24.4 S 5 6 1014.2 - 0.0 - - - - - - -
25/07:00am 24.0 S 6 7 1013.9 - 0.0 - - - - - - -
25/06:30am 23.5 SSW 5 6 1013.6 - 0.0 - - - - - - -
25/06:00am 23.3 SSW 5 6 1013.1 - 0.0 - - - - - - -
25/05:30am 23.5 SSW 7 8 1012.8 - 0.0 - - - - - - -
25/05:00am 23.6 SSW 7 7 1012.5 - 0.0 - - - - - - -
25/04:30am 23.7 SSW 7 8 1012.5 - 0.0 - - - - - - -
25/04:00am 23.8 SW 6 7 1012.5 - 0.0 - - - - - - -
25/03:30am 23.8 SW 4 6 1012.4 - 0.0 - - - - - - -
25/03:00am 23.6 WSW 2 4 1012.4 - 0.0 - - - - - - -
25/02:30am 23.6 CALM 0 0 1012.6 - 0.0 - - - - - - -
25/02:00am 23.1 CALM 0 0 1012.6 - 0.0 - - - - - - -
25/01:30am 23.8 SE 3 4 1012.6 - 0.0 - - - - - - -
25/01:00am 24.0 ESE 5 6 1012.9 - 0.0 - - - - - - -
25/12:30am 24.0 SE 5 5 1013.1 - 0.0 - - - - - - -
25/12:00am 24.5 E 7 8 1013.1 - 0.0 - - - - - - -
 
Date/Time
WST
Temp
°C
Wind Pressure Rain since
9am
mm
Weather Cloud Vis
km
Sea
Height
m
Swell
Dir  Spd
kts
Gust
kts
hPa Trend Height
m
Period
s
Dir
24/11:30pm 24.6 E 6 8 1013.1 - 0.0 - - - - - - -
24/11:00pm 24.7 ESE 7 9 1013.2 - 0.0 - - - - - - -
24/10:30pm 24.8 E 7 9 1013.2 - 0.0 - - - - - - -
24/10:00pm 24.7 ESE 8 9 1013.3 - 0.0 - - - - - - -
24/09:30pm 24.9 E 9 10 1013.2 - 0.0 - - - - - - -
24/09:00pm 25.0 E 8 9 1013.3 - 0.0 - - - - - - -
24/08:30pm 25.2 ENE 9 10 1013.0 - 0.0 - - - - - - -
24/08:00pm 25.2 ENE 10 11 1012.6 - 0.0 - - - - - - -
24/07:30pm 25.4 ENE 11 12 1012.1 - 0.0 - - - - - - -
24/07:00pm 25.5 NE 11 13 1011.9 - 0.0 - - - - - - -
24/06:30pm 25.5 NE 8 10 1011.5 - 0.0 - - - - - - -
24/06:00pm 25.6 NE 8 10 1011.2 - 0.0 - - - - - - -
24/05:30pm 25.9 NE 9 11 1011.0 - 0.0 - - - - - - -
24/05:00pm 26.6 NNE 9 11 1010.8 - 0.0 - - - - - - -

Other Formats:

Comma delimited format used in spreadsheet applications
http://www.bom.gov.au/fwo/IDW60701/IDW60701.94102.axf

JavaScript Object Notation format (JSON) in row-major order
http://www.bom.gov.au/fwo/IDW60701/IDW60701.94102.json